createdAt,value
2018-05-23T00:01:00.954Z,3.43
2018-05-23T00:03:28.151Z,3.50
2018-05-23T00:05:55.349Z,3.70
2018-05-23T00:08:22.553Z,3.60
2018-05-23T00:10:49.752Z,4.20
2018-05-23T00:13:16.946Z,3.90
2018-05-23T00:15:44.129Z,4.17
2018-05-23T00:18:11.337Z,3.93
2018-05-23T00:20:38.520Z,3.43
2018-05-23T00:23:05.710Z,3.43
2018-05-23T00:25:32.918Z,3.80
2018-05-23T00:28:00.126Z,3.90
2018-05-23T00:30:27.318Z,3.53
2018-05-23T00:32:54.517Z,4.00
2018-05-23T00:35:21.724Z,3.80
2018-05-23T00:37:48.922Z,3.53
2018-05-23T00:40:16.127Z,3.40
2018-05-23T00:42:43.317Z,3.57
2018-05-23T00:45:10.528Z,3.70
2018-05-23T00:47:37.712Z,3.53
2018-05-23T00:50:04.902Z,3.33
2018-05-23T00:52:32.090Z,3.70
2018-05-23T00:55:04.980Z,3.37
2018-05-23T00:57:32.166Z,3.20
2018-05-23T00:59:59.354Z,3.83
2018-05-23T01:02:26.565Z,3.10
2018-05-23T01:04:53.746Z,3.70
2018-05-23T01:07:21.134Z,4.00
2018-05-23T01:09:48.361Z,3.63
2018-05-23T01:12:15.567Z,4.10
2018-05-23T01:14:42.765Z,3.63
2018-05-23T01:17:09.951Z,3.87
2018-05-23T01:19:37.143Z,3.73
2018-05-23T01:22:04.354Z,3.57
2018-05-23T01:24:31.563Z,4.00
2018-05-23T01:26:58.747Z,4.53
2018-05-23T01:29:25.935Z,4.23
2018-05-23T01:31:53.126Z,3.60
2018-05-23T01:34:20.319Z,4.23
2018-05-23T01:36:47.508Z,3.93
2018-05-23T01:39:14.712Z,4.27
2018-05-23T01:41:41.891Z,3.80
2018-05-23T01:44:09.091Z,3.90
2018-05-23T01:46:36.278Z,4.03
2018-05-23T01:49:09.226Z,4.10
2018-05-23T01:51:36.426Z,3.73
2018-05-23T01:54:03.618Z,3.93
2018-05-23T01:56:30.818Z,3.50
2018-05-23T01:58:57.998Z,4.07
2018-05-23T02:01:25.202Z,3.77
2018-05-23T02:03:52.403Z,3.67
2018-05-23T02:06:19.599Z,4.70
2018-05-23T02:08:46.799Z,4.50
2018-05-23T02:11:13.994Z,4.07
2018-05-23T02:13:41.199Z,4.23
2018-05-23T02:16:08.386Z,3.80
2018-05-23T02:18:35.604Z,4.07
2018-05-23T02:21:02.796Z,3.90
2018-05-23T02:23:29.993Z,3.90
2018-05-23T02:25:57.170Z,3.53
2018-05-23T02:28:24.369Z,3.53
2018-05-23T02:30:51.565Z,3.97
2018-05-23T02:33:18.754Z,3.63
2018-05-23T02:35:45.953Z,3.50
2018-05-23T02:38:13.138Z,3.90
2018-05-23T02:40:40.340Z,3.73
2018-05-23T02:43:07.526Z,3.97
2018-05-23T02:45:34.722Z,3.40
2018-05-23T02:48:01.903Z,3.33
2018-05-23T02:50:29.090Z,4.20
2018-05-23T02:52:56.290Z,3.90
2018-05-23T02:55:23.486Z,4.10
2018-05-23T02:57:50.703Z,3.73
2018-05-23T03:00:17.894Z,3.50
2018-05-23T03:02:45.090Z,3.80
2018-05-23T03:05:12.283Z,3.30
2018-05-23T03:07:39.466Z,4.13
2018-05-23T03:10:06.645Z,4.13
2018-05-23T03:12:33.856Z,3.73
2018-05-23T03:15:01.047Z,4.17
2018-05-23T03:17:28.229Z,3.50
2018-05-23T03:19:55.427Z,3.93
2018-05-23T03:22:22.605Z,3.80
2018-05-23T03:24:49.838Z,3.80
2018-05-23T03:27:17.078Z,3.90
2018-05-23T03:29:44.281Z,3.93
2018-05-23T03:32:11.642Z,4.20
2018-05-23T03:34:38.842Z,3.73
2018-05-23T03:37:06.029Z,3.60
2018-05-23T03:39:33.219Z,3.93
2018-05-23T03:42:00.426Z,3.90
2018-05-23T03:44:27.624Z,3.67
2018-05-23T03:46:54.832Z,3.73
2018-05-23T03:49:22.010Z,3.87
2018-05-23T03:51:49.216Z,3.70
2018-05-23T03:54:16.407Z,4.00
2018-05-23T03:56:43.635Z,4.40
2018-05-23T03:59:10.822Z,4.37
2018-05-23T04:01:43.614Z,3.40
2018-05-23T04:04:16.496Z,3.80
2018-05-23T04:06:49.394Z,3.40
2018-05-23T04:09:16.586Z,3.47
2018-05-23T04:11:43.773Z,3.17
2018-05-23T04:14:10.974Z,3.53
2018-05-23T04:16:38.163Z,3.30
2018-05-23T04:19:05.390Z,3.33
2018-05-23T04:21:32.557Z,4.03
2018-05-23T04:23:59.778Z,4.73
2018-05-23T04:26:26.983Z,3.53
2018-05-23T04:28:54.183Z,3.40
2018-05-23T04:31:21.387Z,3.37
2018-05-23T04:33:48.605Z,3.00
2018-05-23T04:36:15.803Z,2.87
2018-05-23T04:38:42.985Z,3.10
2018-05-23T04:41:10.180Z,2.90
2018-05-23T04:43:37.364Z,3.57
2018-05-23T04:46:04.569Z,3.30
2018-05-23T04:48:31.765Z,3.40
2018-05-23T04:50:58.971Z,3.13
2018-05-23T04:53:26.149Z,3.47
2018-05-23T04:55:53.390Z,3.80
2018-05-23T04:58:20.574Z,3.80
2018-05-23T05:00:47.788Z,3.60
2018-05-23T05:03:14.997Z,3.70
2018-05-23T05:05:42.188Z,3.23
2018-05-23T05:08:09.385Z,3.90
2018-05-23T05:10:36.593Z,3.00
2018-05-23T05:13:03.792Z,3.27
2018-05-23T05:15:30.986Z,4.00
2018-05-23T05:17:58.935Z,3.73
2018-05-23T05:20:26.121Z,3.43
2018-05-23T05:22:53.313Z,3.83
2018-05-23T05:25:20.557Z,3.67
2018-05-23T05:27:47.751Z,3.37
2018-05-23T05:30:14.963Z,2.90
2018-05-23T05:32:42.154Z,2.87
2018-05-23T05:35:09.345Z,3.47
2018-05-23T05:37:36.557Z,3.17
2018-05-23T05:40:03.505Z,2.80
2018-05-23T05:42:30.693Z,3.00
2018-05-23T05:44:57.888Z,3.00
2018-05-23T05:47:25.098Z,3.50
2018-05-23T05:49:52.273Z,3.10
2018-05-23T05:52:19.463Z,3.37
2018-05-23T05:54:46.662Z,3.60
2018-05-23T05:57:13.882Z,3.30
2018-05-23T05:59:41.134Z,3.43
2018-05-23T06:02:08.711Z,3.50
2018-05-23T06:04:36.044Z,3.40
2018-05-23T06:07:03.280Z,3.17
2018-05-23T06:09:30.480Z,3.50
2018-05-23T06:11:57.852Z,3.10
2018-05-23T06:14:25.046Z,3.10
2018-05-23T06:16:52.228Z,2.53
2018-05-23T06:19:19.478Z,3.63
2018-05-23T06:21:46.660Z,3.10
2018-05-23T06:24:13.896Z,2.73
2018-05-23T06:26:41.127Z,3.67
2018-05-23T06:29:08.323Z,3.17
2018-05-23T06:31:35.516Z,3.67
2018-05-23T06:34:02.721Z,3.30
2018-05-23T06:36:30.626Z,3.67
2018-05-23T06:38:57.814Z,4.37
2018-05-23T06:41:25.018Z,3.87
2018-05-23T06:43:52.211Z,3.60
2018-05-23T06:46:19.419Z,3.00
2018-05-23T06:48:46.659Z,3.90
2018-05-23T06:51:13.838Z,4.20
2018-05-23T06:53:41.040Z,3.57
2018-05-23T06:56:08.254Z,4.10
2018-05-23T06:58:35.666Z,3.23
2018-05-23T07:01:02.849Z,3.63
2018-05-23T07:03:30.040Z,4.77
2018-05-23T07:05:57.319Z,4.07
2018-05-23T07:08:24.614Z,3.60
2018-05-23T07:10:51.824Z,3.77
2018-05-23T07:13:19.018Z,3.37
2018-05-23T07:15:47.281Z,3.40
2018-05-23T07:18:14.561Z,3.67
2018-05-23T07:20:42.095Z,3.60
2018-05-23T07:23:09.366Z,3.30
2018-05-23T07:25:36.709Z,4.00
2018-05-23T07:28:04.461Z,3.73
2018-05-23T07:30:31.746Z,3.07
2018-05-23T07:32:59.045Z,4.00
2018-05-23T07:35:26.354Z,3.77
2018-05-23T07:37:53.986Z,4.70
2018-05-23T07:40:21.331Z,3.40
2018-05-23T07:42:48.659Z,2.97
2018-05-23T07:45:16.036Z,3.60
2018-05-23T07:47:43.327Z,3.67
2018-05-23T07:50:10.707Z,4.00
2018-05-23T07:52:38.043Z,3.50
2018-05-23T07:55:05.275Z,3.70
2018-05-23T07:57:32.490Z,3.70
2018-05-23T07:59:59.682Z,4.30
2018-05-23T08:02:26.866Z,3.83
2018-05-23T08:04:54.080Z,3.93
2018-05-23T08:07:21.266Z,3.90
2018-05-23T08:09:48.462Z,3.70
2018-05-23T08:12:15.655Z,3.40
2018-05-23T08:14:42.855Z,3.83
2018-05-23T08:17:10.035Z,3.90
2018-05-23T08:19:37.226Z,4.30
2018-05-23T08:22:04.430Z,3.67
2018-05-23T08:24:31.687Z,3.97
2018-05-23T08:26:59.018Z,4.20
2018-05-23T08:29:26.205Z,3.93
2018-05-23T08:31:53.537Z,4.47
2018-05-23T08:34:20.727Z,4.80
2018-05-23T08:36:47.911Z,4.30
2018-05-23T08:39:15.143Z,4.60
2018-05-23T08:41:42.345Z,4.07
2018-05-23T08:44:09.582Z,4.23
2018-05-23T08:46:36.769Z,4.20
2018-05-23T08:49:03.961Z,3.80
2018-05-23T08:51:31.158Z,5.20
2018-05-23T08:53:58.346Z,4.63
2018-05-23T08:56:25.545Z,4.13
2018-05-23T08:58:52.742Z,5.03
2018-05-23T09:01:19.947Z,5.10
2018-05-23T09:03:47.137Z,5.87
2018-05-23T09:06:14.342Z,5.40
2018-05-23T09:08:41.522Z,5.90
2018-05-23T09:11:08.731Z,4.87
2018-05-23T09:13:35.915Z,5.77
2018-05-23T09:16:03.110Z,5.00
2018-05-23T09:18:30.332Z,5.37
2018-05-23T09:20:57.510Z,4.90
2018-05-23T09:23:24.709Z,4.93
2018-05-23T09:25:51.891Z,5.33
2018-05-23T09:28:19.088Z,5.03
2018-05-23T09:30:46.300Z,5.47
2018-05-23T09:33:13.516Z,4.30
2018-05-23T09:35:40.707Z,5.67
2018-05-23T09:38:08.087Z,7.33
2018-05-23T09:40:35.294Z,6.60
2018-05-23T09:43:02.486Z,5.03
2018-05-23T09:45:29.687Z,5.13
2018-05-23T09:47:57.061Z,5.90
2018-05-23T09:50:24.264Z,6.10
2018-05-23T09:52:51.459Z,7.30
2018-05-23T09:55:18.701Z,5.20
2018-05-23T09:57:45.894Z,6.20
2018-05-23T10:00:12.887Z,6.70
2018-05-23T10:02:40.089Z,5.97
2018-05-23T10:05:07.286Z,6.27
2018-05-23T10:07:34.498Z,6.03
2018-05-23T10:10:01.690Z,5.87
2018-05-23T10:12:28.919Z,6.17
2018-05-23T10:14:56.139Z,5.63
2018-05-23T10:17:23.324Z,5.13
2018-05-23T10:19:50.531Z,4.93
2018-05-23T10:22:17.718Z,5.50
2018-05-23T10:24:44.906Z,5.27
2018-05-23T10:27:12.099Z,4.93
2018-05-23T10:29:39.287Z,4.20
2018-05-23T10:32:06.485Z,4.33
2018-05-23T10:34:33.693Z,5.40
2018-05-23T10:37:00.866Z,5.63
2018-05-23T10:39:28.064Z,6.17
2018-05-23T10:41:55.279Z,4.97
2018-05-23T10:44:22.467Z,5.67
2018-05-23T10:46:49.665Z,5.00
2018-05-23T10:49:16.858Z,4.13
2018-05-23T10:51:44.178Z,4.93
2018-05-23T10:54:11.487Z,4.50
2018-05-23T10:56:38.689Z,4.30
2018-05-23T10:59:05.880Z,5.03
2018-05-23T11:01:33.072Z,4.73
2018-05-23T11:04:00.334Z,4.73
2018-05-23T11:06:27.530Z,4.27
2018-05-23T11:08:54.734Z,4.90
2018-05-23T11:11:21.931Z,3.77
2018-05-23T11:13:49.126Z,3.90
2018-05-23T11:16:16.307Z,3.60
2018-05-23T11:18:43.544Z,5.03
2018-05-23T11:21:10.723Z,3.57
2018-05-23T11:23:37.902Z,4.00
2018-05-23T11:26:05.128Z,3.57
2018-05-23T11:28:32.349Z,3.33
2018-05-23T11:30:59.542Z,3.13
2018-05-23T11:33:26.733Z,3.53
2018-05-23T11:35:53.929Z,3.20
2018-05-23T11:38:21.119Z,4.63
2018-05-23T11:40:48.311Z,5.00
2018-05-23T11:43:15.510Z,5.07
2018-05-23T11:45:42.694Z,5.10
2018-05-23T11:48:09.916Z,4.63
2018-05-23T11:50:37.101Z,4.40
2018-05-23T11:53:04.310Z,4.40
2018-05-23T11:55:31.513Z,3.90
2018-05-23T11:58:01.805Z,4.00
2018-05-23T12:00:28.986Z,3.03
2018-05-23T12:02:56.198Z,4.20
2018-05-23T12:05:23.379Z,3.70
2018-05-23T12:07:50.615Z,3.37
2018-05-23T12:10:17.811Z,4.97
2018-05-23T12:12:45.192Z,4.30
2018-05-23T12:15:12.393Z,4.20
2018-05-23T12:17:39.580Z,3.23
2018-05-23T12:20:06.800Z,3.60
2018-05-23T12:22:33.994Z,4.03
2018-05-23T12:25:01.175Z,3.87
2018-05-23T12:27:28.366Z,4.10
2018-05-23T12:29:55.578Z,4.10
2018-05-23T12:32:22.781Z,4.00
2018-05-23T12:34:49.982Z,5.97
2018-05-23T12:37:17.173Z,4.30
2018-05-23T12:39:44.372Z,3.30
2018-05-23T12:42:11.576Z,4.20
2018-05-23T12:44:41.471Z,3.43
2018-05-23T12:47:08.669Z,3.50
2018-05-23T12:49:36.011Z,4.23
2018-05-23T12:52:03.193Z,4.00
2018-05-23T12:54:30.399Z,3.13
2018-05-23T12:56:57.600Z,4.10
2018-05-23T12:59:25.842Z,4.07
2018-05-23T13:01:57.272Z,3.30
2018-05-23T13:04:24.465Z,4.00
2018-05-23T13:06:51.655Z,2.87
2018-05-23T13:09:18.956Z,2.90
2018-05-23T13:11:46.154Z,3.07
2018-05-23T13:14:13.368Z,3.80
2018-05-23T13:16:40.570Z,2.80
2018-05-23T13:19:07.758Z,2.87
2018-05-23T13:21:34.971Z,3.50
2018-05-23T13:24:02.173Z,3.93
2018-05-23T13:26:29.472Z,3.90
2018-05-23T13:28:56.674Z,2.50
2018-05-23T13:31:23.863Z,2.30
2018-05-23T13:33:51.058Z,3.60
2018-05-23T13:36:18.290Z,2.77
2018-05-23T13:38:45.509Z,2.50
2018-05-23T13:41:12.707Z,2.63
2018-05-23T13:43:39.901Z,2.10
2018-05-23T13:46:07.093Z,2.30
2018-05-23T13:48:34.305Z,2.23
2018-05-23T13:51:01.521Z,2.00
2018-05-23T13:53:28.706Z,2.30
2018-05-23T13:55:55.934Z,2.20
2018-05-23T13:58:23.118Z,2.43
2018-05-23T14:00:50.333Z,2.60
2018-05-23T14:03:17.534Z,2.67
2018-05-23T14:05:44.738Z,2.57
2018-05-23T14:08:11.938Z,2.33
2018-05-23T14:10:39.159Z,2.20
2018-05-23T14:13:06.364Z,3.23
2018-05-23T14:15:33.583Z,3.97
2018-05-23T14:18:00.786Z,3.00
2018-05-23T14:20:28.179Z,3.13
2018-05-23T14:22:55.486Z,3.00
2018-05-23T14:25:22.667Z,2.60
2018-05-23T14:27:49.892Z,2.70
2018-05-23T14:30:17.154Z,2.20
2018-05-23T14:32:44.332Z,2.47
2018-05-23T14:35:11.537Z,2.47
2018-05-23T14:37:38.731Z,3.03
2018-05-23T14:40:06.362Z,2.93
2018-05-23T14:42:33.549Z,2.90
2018-05-23T14:45:00.746Z,3.30
2018-05-23T14:47:27.933Z,3.40
2018-05-23T14:49:55.207Z,3.20
2018-05-23T14:52:22.554Z,2.80
2018-05-23T14:54:49.762Z,3.40
2018-05-23T14:57:16.967Z,3.47
2018-05-23T14:59:44.149Z,2.70
2018-05-23T15:02:11.371Z,3.37
2018-05-23T15:04:38.560Z,3.20
2018-05-23T15:07:05.753Z,3.00
2018-05-23T15:09:32.972Z,3.37
2018-05-23T15:12:00.160Z,3.47
2018-05-23T15:14:27.392Z,4.00
2018-05-23T15:16:54.774Z,3.60
2018-05-23T15:19:21.971Z,3.10
2018-05-23T15:21:49.278Z,3.77
2018-05-23T15:24:25.117Z,3.70
2018-05-23T15:26:53.105Z,3.50
2018-05-23T15:29:20.319Z,3.70
2018-05-23T15:31:47.516Z,3.67
2018-05-23T15:36:48.473Z,3.50
2018-05-23T15:39:15.670Z,3.90
2018-05-23T15:41:42.911Z,3.47
2018-05-23T15:44:11.645Z,3.50
2018-05-23T15:46:38.902Z,3.70
2018-05-23T15:49:06.094Z,3.90
2018-05-23T15:51:33.306Z,3.27
2018-05-23T15:54:00.525Z,4.00
2018-05-23T15:56:27.728Z,3.57
2018-05-23T15:58:54.922Z,3.80
2018-05-23T16:01:22.138Z,4.20
2018-05-23T16:03:49.348Z,4.40
2018-05-23T16:06:16.521Z,3.70
2018-05-23T16:08:43.753Z,4.20
2018-05-23T16:11:10.972Z,5.30
2018-05-23T16:13:38.179Z,4.10
2018-05-23T16:16:05.589Z,4.40
2018-05-23T16:18:32.795Z,5.27
2018-05-23T16:20:59.985Z,4.77
2018-05-23T16:23:27.198Z,4.40
2018-05-23T16:25:54.412Z,3.90
2018-05-23T16:28:21.620Z,3.30
2018-05-23T16:30:48.820Z,3.37
2018-05-23T16:33:16.002Z,3.60
2018-05-23T16:35:43.208Z,3.70
2018-05-23T16:38:10.398Z,3.60
2018-05-23T16:40:37.599Z,3.40
2018-05-23T16:43:04.779Z,3.60
2018-05-23T16:45:31.978Z,3.67
2018-05-23T16:47:59.166Z,3.67
2018-05-23T16:50:26.408Z,3.63
2018-05-23T16:52:53.618Z,3.70
2018-05-23T16:55:20.891Z,3.70
2018-05-23T16:57:48.072Z,4.13
2018-05-23T17:00:15.282Z,6.13
2018-05-23T17:02:42.474Z,3.40
2018-05-23T17:05:09.675Z,3.87
2018-05-23T17:07:36.889Z,3.83
2018-05-23T17:10:04.091Z,4.10
2018-05-23T17:12:31.327Z,4.17
2018-05-23T17:14:58.698Z,4.20
2018-05-23T17:17:25.995Z,4.33
2018-05-23T17:19:53.170Z,3.63
2018-05-23T17:22:20.380Z,4.30
2018-05-23T17:24:47.601Z,4.20
2018-05-23T17:27:14.786Z,7.73
2018-05-23T17:29:41.997Z,4.10
2018-05-23T17:32:09.214Z,3.90
2018-05-23T17:34:36.415Z,4.40
2018-05-23T17:37:03.599Z,3.63
2018-05-23T17:39:30.821Z,3.97
2018-05-23T17:41:57.995Z,4.40
2018-05-23T17:44:25.206Z,3.80
2018-05-23T17:46:52.392Z,4.50
2018-05-23T17:49:19.586Z,4.60
2018-05-23T17:51:46.800Z,4.37
2018-05-23T17:54:14.009Z,4.90
2018-05-23T17:56:41.198Z,6.00
2018-05-23T17:59:08.426Z,4.00
2018-05-23T18:01:35.649Z,4.60
2018-05-23T18:04:02.872Z,7.27
2018-05-23T18:06:30.060Z,4.43
2018-05-23T18:08:57.453Z,4.50
2018-05-23T18:11:24.735Z,4.13
2018-05-23T18:13:52.070Z,4.63
2018-05-23T18:16:19.271Z,4.43
2018-05-23T18:18:46.492Z,3.87
2018-05-23T18:21:13.699Z,3.47
2018-05-23T18:23:41.001Z,2.70
2018-05-23T18:26:08.327Z,3.23
2018-05-23T18:28:35.613Z,2.70
2018-05-23T18:31:02.976Z,2.30
2018-05-23T18:33:30.193Z,2.50
2018-05-23T18:35:57.428Z,2.63
2018-05-23T18:38:24.614Z,1.93
2018-05-23T18:40:51.818Z,2.37
2018-05-23T18:43:19.066Z,2.53
2018-05-23T18:45:46.462Z,2.07
2018-05-23T18:48:13.699Z,2.90
2018-05-23T18:50:40.941Z,2.20
2018-05-23T18:53:08.133Z,2.70
2018-05-23T18:55:35.327Z,2.67
2018-05-23T18:58:02.541Z,2.67
2018-05-23T19:00:29.751Z,3.10
2018-05-23T19:02:57.015Z,3.33
2018-05-23T19:05:24.676Z,3.50
2018-05-23T19:07:52.067Z,3.10
2018-05-23T19:10:19.273Z,2.90
2018-05-23T19:12:46.578Z,3.17
2018-05-23T19:15:13.830Z,2.53
2018-05-23T19:17:41.150Z,2.43
2018-05-23T19:20:08.444Z,2.50
2018-05-23T19:22:36.673Z,2.60
2018-05-23T19:25:03.931Z,2.27
2018-05-23T19:27:31.149Z,2.30
2018-05-23T19:29:58.469Z,2.70
2018-05-23T19:32:25.696Z,2.47
2018-05-23T19:34:53.495Z,2.70
2018-05-23T19:37:21.138Z,2.70
2018-05-23T19:39:48.594Z,2.50
2018-05-23T19:42:15.947Z,3.10
2018-05-23T19:44:43.168Z,2.70
2018-05-23T19:47:10.466Z,7.77
2018-05-23T19:49:38.922Z,5.73
2018-05-23T19:52:06.458Z,11.38
2018-05-23T19:57:08.244Z,9.10
2018-05-23T19:59:37.265Z,5.27
2018-05-23T20:02:04.627Z,4.50
2018-05-23T20:04:32.025Z,4.00
2018-05-23T20:06:59.257Z,3.10
2018-05-23T20:09:27.374Z,3.30
2018-05-23T20:11:55.513Z,3.20
2018-05-23T20:14:22.829Z,2.60
2018-05-23T20:16:50.379Z,3.80
2018-05-23T20:19:17.607Z,3.27
2018-05-23T20:21:44.805Z,3.60
2018-05-23T20:24:12.020Z,4.13
2018-05-23T20:26:39.223Z,3.40
2018-05-23T20:29:06.431Z,4.17
2018-05-23T20:31:33.674Z,3.33
2018-05-23T20:34:00.874Z,3.80
2018-05-23T20:36:28.169Z,8.87
2018-05-23T20:38:55.386Z,11.07
2018-05-23T20:41:22.607Z,5.40
2018-05-23T20:43:49.798Z,5.70
2018-05-23T20:46:17.003Z,4.87
2018-05-23T20:48:44.290Z,4.40
2018-05-23T20:51:11.524Z,4.80
2018-05-23T20:53:38.797Z,5.03
2018-05-23T20:56:06.013Z,4.10
2018-05-23T20:58:33.320Z,4.20
2018-05-23T21:01:00.645Z,3.67
2018-05-23T21:03:27.885Z,3.80
2018-05-23T21:05:55.070Z,4.00
2018-05-23T21:08:22.297Z,3.53
2018-05-23T21:10:49.556Z,3.57
2018-05-23T21:13:16.763Z,3.57
2018-05-23T21:15:43.990Z,4.00
2018-05-23T21:18:11.195Z,5.00
2018-05-23T21:20:38.555Z,5.57
2018-05-23T21:23:05.789Z,4.80
2018-05-23T21:25:33.017Z,4.37
2018-05-23T21:28:00.209Z,4.50
2018-05-23T21:30:27.423Z,4.60
2018-05-23T21:32:54.619Z,5.37
2018-05-23T21:35:21.851Z,5.30
2018-05-23T21:37:49.040Z,5.37
2018-05-23T21:40:16.264Z,4.90
2018-05-23T21:42:43.482Z,5.10
2018-05-23T21:45:10.680Z,5.50
2018-05-23T21:47:37.939Z,5.10
2018-05-23T21:50:05.142Z,5.37
2018-05-23T21:52:32.353Z,5.10
2018-05-23T21:54:59.551Z,5.17
2018-05-23T21:57:26.771Z,6.07
2018-05-23T21:59:53.986Z,6.30
2018-05-23T22:02:21.194Z,5.13
2018-05-23T22:04:48.405Z,6.50
2018-05-23T22:07:15.609Z,5.60
2018-05-23T22:09:42.815Z,5.83
2018-05-23T22:12:10.011Z,5.50
2018-05-23T22:14:37.249Z,5.50
2018-05-23T22:17:04.450Z,6.23
2018-05-23T22:19:31.701Z,6.40
2018-05-23T22:21:58.889Z,5.80
2018-05-23T22:24:26.112Z,5.73
2018-05-23T22:26:53.315Z,5.10
2018-05-23T22:29:20.519Z,5.20
2018-05-23T22:31:47.742Z,4.83
2018-05-23T22:34:14.951Z,4.73
2018-05-23T22:36:42.154Z,5.23
2018-05-23T22:39:09.360Z,4.70
2018-05-23T22:41:36.550Z,5.10
2018-05-23T22:44:03.754Z,4.77
2018-05-23T22:46:30.979Z,5.03
2018-05-23T22:48:58.182Z,4.60
2018-05-23T22:51:25.378Z,5.20
2018-05-23T22:53:52.578Z,4.90
2018-05-23T22:56:19.782Z,4.33
2018-05-23T22:58:46.741Z,4.43
2018-05-23T23:01:13.947Z,4.83
2018-05-23T23:03:41.140Z,4.13
2018-05-23T23:06:08.352Z,5.10
2018-05-23T23:08:35.564Z,4.13
2018-05-23T23:11:02.750Z,4.60
2018-05-23T23:13:29.960Z,4.87
2018-05-23T23:15:57.147Z,4.20
2018-05-23T23:18:24.348Z,4.07
2018-05-23T23:20:51.540Z,3.80
2018-05-23T23:23:18.738Z,3.40
2018-05-23T23:25:45.922Z,3.70
2018-05-23T23:28:13.122Z,3.60
2018-05-23T23:30:40.314Z,3.70
2018-05-23T23:33:07.514Z,4.10
2018-05-23T23:35:34.720Z,3.67
2018-05-23T23:38:01.914Z,3.83
2018-05-23T23:40:29.113Z,3.70
2018-05-23T23:42:56.321Z,3.77
2018-05-23T23:45:23.532Z,3.70
2018-05-23T23:47:50.720Z,3.40
2018-05-23T23:50:17.921Z,3.87
2018-05-23T23:52:45.103Z,4.40
2018-05-23T23:55:12.320Z,4.43
2018-05-23T23:57:39.511Z,3.97
